Time;durP1;ratioP1;P1;durP2;ratioP2;P2;SDS_P1;SDS_P2;PMS_P1;PMS_P2;Temp;Humidity;BMP_temperature;BMP_pressure;BME280_temperature;BME280_humidity;BME280_pressure;Samples;Min_cycle;Max_cycle;Signal;HPM_P1;HPM_P2
2022/01/27 00:00:43;;;;;;;4.93;4.45;;;;;;;;;;6157527;23;20009;-69
2022/01/27 00:03:21;;;;;;;4.55;4.07;;;;;;;;;;6130555;23;20350;-70
2022/01/27 00:05:53;;;;;;;4.43;4.03;;;;;;;;;;6106766;23;20009;-68
2022/01/27 00:08:26;;;;;;;4.60;4.20;;;;;;;;;;6157289;23;20312;-68
2022/01/27 00:10:57;;;;;;;5.57;4.57;;;;;;;;;;6157237;23;20006;-69
2022/01/27 00:13:28;;;;;;;4.93;4.25;;;;;;;;;;6157397;23;20001;-69
2022/01/27 00:16:10;;;;;;;5.75;4.32;;;;;;;;;;6157064;23;20395;-68
2022/01/27 00:18:35;;;;;;;4.05;3.47;;;;;;;;;;6157577;23;20006;-68
2022/01/27 00:21:01;;;;;;;4.93;4.43;;;;;;;;;;6131075;23;20001;-67
2022/01/27 00:23:26;;;;;;;4.80;4.18;;;;;;;;;;6131062;23;20012;-65
2022/01/27 00:25:51;;;;;;;5.57;4.32;;;;;;;;;;6157504;23;20299;-64
2022/01/27 00:28:18;;;;;;;5.05;4.10;;;;;;;;;;6156809;23;20009;-67
2022/01/27 00:30:43;;;;;;;5.43;4.85;;;;;;;;;;6157022;23;20029;-67
2022/01/27 00:33:09;;;;;;;2.72;2.45;;;;;;;;;;6156927;23;20006;-68
2022/01/27 00:35:35;;;;;;;1.70;1.60;;;;;;;;;;6157154;23;20037;-67
2022/01/27 00:38:01;;;;;;;6.72;4.95;;;;;;;;;;6156925;23;20005;-67
2022/01/27 00:40:26;;;;;;;7.38;5.07;;;;;;;;;;6156769;23;20411;-68
2022/01/27 00:42:52;;;;;;;6.75;5.10;;;;;;;;;;6130441;23;20009;-67
2022/01/27 00:45:18;;;;;;;5.40;4.90;;;;;;;;;;6156761;23;19993;-68
2022/01/27 00:47:44;;;;;;;5.32;4.72;;;;;;;;;;6156985;23;20033;-68
2022/01/27 00:50:09;;;;;;;7.30;5.07;;;;;;;;;;6157065;23;19994;-68
2022/01/27 00:52:46;;;;;;;7.43;5.70;;;;;;;;;;6157039;23;20033;-69
2022/01/27 00:55:13;;;;;;;6.18;5.18;;;;;;;;;;6130547;23;20378;-69
2022/01/27 01:00:21;;;;;;;5.78;5.10;;;;;;;;;;6156561;23;20012;-68
2022/01/27 01:02:53;;;;;;;6.15;5.15;;;;;;;;;;6156353;23;20014;-69
2022/01/27 01:07:51;;;;;;;6.53;5.40;;;;;;;;;;6156652;23;20429;-66
2022/01/27 01:11:08;;;;;;;5.75;4.80;;;;;;;;;;6156604;23;20002;-66
2022/01/27 01:15:57;;;;;;;6.60;5.93;;;;;;;;;;6130219;23;20323;-66
2022/01/27 01:21:43;;;;;;;6.85;5.30;;;;;;;;;;6156778;23;20481;-66
2022/01/27 01:29:29;;;;;;;6.85;5.97;;;;;;;;;;6156563;23;20009;-68
2022/01/27 01:32:13;;;;;;;7.93;6.35;;;;;;;;;;6156646;23;20069;-68
2022/01/27 01:34:45;;;;;;;7.85;5.47;;;;;;;;;;6156085;23;20086;-69
2022/01/27 01:37:11;;;;;;;8.05;5.90;;;;;;;;;;6156733;23;20323;-68
2022/01/27 01:39:37;;;;;;;6.85;5.68;;;;;;;;;;6156371;23;20052;-68
2022/01/27 01:42:04;;;;;;;8.25;5.60;;;;;;;;;;6156936;23;20006;-68
2022/01/27 01:44:30;;;;;;;8.73;6.32;;;;;;;;;;6156209;23;20021;-68
2022/01/27 01:46:56;;;;;;;7.43;5.82;;;;;;;;;;6156264;23;20354;-69
2022/01/27 01:49:26;;;;;;;6.97;5.80;;;;;;;;;;6156244;23;20452;-69
2022/01/27 01:51:52;;;;;;;7.35;5.72;;;;;;;;;;6156257;23;20096;-66
2022/01/27 01:54:18;;;;;;;10.07;6.90;;;;;;;;;;6155642;23;19997;-65
2022/01/27 01:56:43;;;;;;;9.32;7.18;;;;;;;;;;6156088;23;20097;-66
2022/01/27 01:59:09;;;;;;;10.02;7.47;;;;;;;;;;6129969;23;20025;-66
2022/01/27 02:01:35;;;;;;;9.43;6.45;;;;;;;;;;6155931;23;20494;-66
2022/01/27 02:04:05;;;;;;;9.10;6.38;;;;;;;;;;6105197;23;20033;-66
2022/01/27 02:06:36;;;;;;;9.38;6.47;;;;;;;;;;6156151;23;20016;-65
2022/01/27 02:19:56;;;;;;;12.38;7.90;;;;;;;;;;6156307;23;20005;-67
2022/01/27 02:22:23;;;;;;;11.82;7.40;;;;;;;;;;6155908;23;19997;-70
2022/01/27 02:24:49;;;;;;;12.65;7.63;;;;;;;;;;6156386;23;20009;-71
2022/01/27 02:27:15;;;;;;;13.43;6.90;;;;;;;;;;6155327;23;20005;-70
2022/01/27 02:29:41;;;;;;;12.48;6.90;;;;;;;;;;6130546;23;20085;-70
2022/01/27 02:32:07;;;;;;;11.30;7.40;;;;;;;;;;6155937;23;20371;-70
2022/01/27 02:34:32;;;;;;;12.23;7.20;;;;;;;;;;6130269;23;20009;-69
2022/01/27 02:36:59;;;;;;;10.18;7.40;;;;;;;;;;6155994;23;20040;-69
2022/01/27 02:39:26;;;;;;;10.77;7.10;;;;;;;;;;6155985;23;20001;-69
2022/01/27 02:41:56;;;;;;;8.10;6.20;;;;;;;;;;6155852;23;20001;-69
2022/01/27 02:44:29;;;;;;;9.07;6.40;;;;;;;;;;6155679;23;20005;-69
2022/01/27 02:46:55;;;;;;;11.52;7.82;;;;;;;;;;6155665;23;20385;-70
2022/01/27 02:49:20;;;;;;;9.50;5.53;;;;;;;;;;6155609;23;20001;-69
2022/01/27 02:51:46;;;;;;;8.85;6.20;;;;;;;;;;6155810;23;20013;-70
2022/01/27 02:54:11;;;;;;;9.38;5.85;;;;;;;;;;6129750;23;20002;-69
2022/01/27 02:56:43;;;;;;;10.60;6.35;;;;;;;;;;6155790;23;20016;-69
2022/01/27 02:59:09;;;;;;;7.53;5.97;;;;;;;;;;6155793;23;20005;-69
2022/01/27 03:01:35;;;;;;;6.10;4.82;;;;;;;;;;6155803;23;20077;-71
2022/01/27 03:04:01;;;;;;;7.75;5.63;;;;;;;;;;6155108;23;20072;-69
2022/01/27 03:06:28;;;;;;;8.73;6.47;;;;;;;;;;6157400;23;20009;-66
2022/01/27 03:08:53;;;;;;;8.95;6.53;;;;;;;;;;6157515;23;20036;-66
2022/01/27 03:11:32;;;;;;;7.47;6.15;;;;;;;;;;6157752;23;20010;-66
2022/01/27 03:13:58;;;;;;;8.40;6.03;;;;;;;;;;6157666;23;20314;-66
2022/01/27 14:05:37;;;;;;;12.32;8.27;;;;;;;;;;6155832;23;20014;-68
2022/01/27 14:08:03;;;;;;;13.43;8.98;;;;;;;;;;6155888;23;20005;-67
2022/01/27 14:10:37;;;;;;;13.05;7.70;;;;;;;;;;6155715;23;19994;-67
2022/01/27 14:13:05;;;;;;;10.48;7.85;;;;;;;;;;6155761;23;20006;-67
2022/01/27 14:15:31;;;;;;;11.68;8.45;;;;;;;;;;6155646;23;20022;-68
2022/01/27 14:18:03;;;;;;;12.07;8.45;;;;;;;;;;6155474;23;20049;-68
2022/01/27 14:20:28;;;;;;;14.57;9.38;;;;;;;;;;6155672;23;20385;-68
2022/01/27 14:23:12;;;;;;;14.63;9.30;;;;;;;;;;6155720;23;20021;-68
2022/01/27 14:25:44;;;;;;;19.50;11.57;;;;;;;;;;6155757;23;20001;-67
2022/01/27 14:28:11;;;;;;;17.35;11.65;;;;;;;;;;6155775;23;20056;-68
2022/01/27 14:30:37;;;;;;;16.15;9.32;;;;;;;;;;6155716;23;20001;-67
2022/01/27 14:33:03;;;;;;;19.05;11.30;;;;;;;;;;6155648;23;20047;-68
2022/01/27 14:35:29;;;;;;;12.80;7.90;;;;;;;;;;6155395;23;20029;-70
2022/01/27 14:37:57;;;;;;;10.30;6.30;;;;;;;;;;6155804;23;20338;-70
2022/01/27 14:40:24;;;;;;;18.25;11.82;;;;;;;;;;6155765;23;20387;-70
2022/01/27 14:42:49;;;;;;;12.85;7.72;;;;;;;;;;6155474;23;20381;-69
2022/01/27 14:45:18;;;;;;;20.08;11.32;;;;;;;;;;6155686;23;20001;-70
2022/01/27 14:47:45;;;;;;;22.08;11.95;;;;;;;;;;6156467;23;20013;-70
2022/01/27 14:50:11;;;;;;;17.48;11.00;;;;;;;;;;6155850;23;20469;-70
2022/01/27 14:52:41;;;;;;;10.45;6.60;;;;;;;;;;6155568;23;20438;-70
2022/01/27 14:55:06;;;;;;;23.35;12.43;;;;;;;;;;6156301;23;20005;-70
2022/01/27 14:57:32;;;;;;;15.65;9.60;;;;;;;;;;6155489;23;20334;-69
2022/01/27 14:59:58;;;;;;;16.77;10.13;;;;;;;;;;6155765;23;20033;-69
2022/01/27 15:02:23;;;;;;;14.35;9.32;;;;;;;;;;6157557;23;20021;-70
2022/01/27 15:04:49;;;;;;;20.25;12.00;;;;;;;;;;6157124;23;20029;-70
2022/01/27 15:07:15;;;;;;;18.13;10.23;;;;;;;;;;6157551;23;20043;-69
2022/01/27 15:09:40;;;;;;;19.02;11.15;;;;;;;;;;6157150;23;20080;-70
2022/01/27 15:12:07;;;;;;;19.42;10.93;;;;;;;;;;6157705;23;20020;-69
2022/01/27 15:20:01;;;;;;;15.05;9.43;;;;;;;;;;6157679;23;20382;-69
2022/01/27 15:22:28;;;;;;;17.13;10.90;;;;;;;;;;6157554;23;19993;-69
2022/01/27 15:24:54;;;;;;;15.82;10.68;;;;;;;;;;6157762;23;20449;-69
2022/01/27 15:27:20;;;;;;;18.70;11.20;;;;;;;;;;6157775;23;20036;-67
2022/01/27 15:29:45;;;;;;;11.48;6.97;;;;;;;;;;6157282;23;20016;-67
2022/01/27 15:32:13;;;;;;;17.05;9.40;;;;;;;;;;6157612;23;20076;-67
2022/01/27 15:34:41;;;;;;;15.20;9.10;;;;;;;;;;6157736;23;20085;-66
2022/01/27 15:37:07;;;;;;;16.27;10.95;;;;;;;;;;6157483;23;20008;-66
2022/01/27 15:39:34;;;;;;;12.25;8.15;;;;;;;;;;6157865;23;20005;-67
2022/01/27 15:41:59;;;;;;;16.58;9.57;;;;;;;;;;6156649;23;19994;-68
2022/01/27 15:44:25;;;;;;;8.18;5.15;;;;;;;;;;6130942;23;20012;-69
2022/01/27 15:46:52;;;;;;;26.30;14.15;;;;;;;;;;6131105;23;20006;-68
2022/01/27 15:49:18;;;;;;;16.30;11.10;;;;;;;;;;6131227;23;20013;-67
2022/01/27 15:51:43;;;;;;;15.23;10.02;;;;;;;;;;6157444;23;20113;-69
2022/01/27 15:54:09;;;;;;;12.05;7.97;;;;;;;;;;6157204;23;20044;-71
2022/01/27 15:56:36;;;;;;;11.93;7.80;;;;;;;;;;6157499;23;20437;-71
2022/01/27 15:59:01;;;;;;;10.23;7.28;;;;;;;;;;6157725;23;20454;-71
2022/01/27 16:01:27;;;;;;;14.05;9.43;;;;;;;;;;6156999;23;19994;-71
2022/01/27 16:03:53;;;;;;;15.77;9.35;;;;;;;;;;6157028;23;20020;-72
2022/01/27 16:06:19;;;;;;;10.68;7.72;;;;;;;;;;6157397;23;20064;-72
2022/01/27 16:08:45;;;;;;;12.50;9.35;;;;;;;;;;6157269;23;20001;-66
2022/01/27 16:11:11;;;;;;;6.22;4.43;;;;;;;;;;6156867;23;20041;-68
2022/01/27 16:13:36;;;;;;;13.88;9.88;;;;;;;;;;6156632;23;20002;-69
2022/01/27 16:16:02;;;;;;;11.27;8.05;;;;;;;;;;6157149;23;20489;-69
2022/01/27 16:18:28;;;;;;;10.60;8.32;;;;;;;;;;6156947;23;20001;-69
2022/01/27 16:20:53;;;;;;;10.18;8.13;;;;;;;;;;6121249;23;20043;-69
2022/01/27 16:23:19;;;;;;;14.30;9.27;;;;;;;;;;6153203;23;19994;-69
2022/01/27 16:25:45;;;;;;;11.35;7.95;;;;;;;;;;6153180;23;20013;-69
2022/01/27 16:28:10;;;;;;;10.25;7.68;;;;;;;;;;6152633;23;20001;-69
2022/01/27 16:30:36;;;;;;;10.15;7.80;;;;;;;;;;6126214;23;20441;-69
2022/01/27 16:33:01;;;;;;;5.20;4.03;;;;;;;;;;6152934;23;20009;-69
2022/01/27 16:35:27;;;;;;;9.65;7.13;;;;;;;;;;6152973;23;20017;-69
2022/01/27 16:37:52;;;;;;;12.70;8.10;;;;;;;;;;6152880;23;20012;-69
2022/01/27 16:40:19;;;;;;;10.32;6.90;;;;;;;;;;6126346;23;20014;-69
2022/01/27 16:42:44;;;;;;;9.52;6.20;;;;;;;;;;6126361;23;20005;-68
2022/01/27 16:45:10;;;;;;;8.80;6.75;;;;;;;;;;6152893;23;20486;-70
2022/01/27 16:47:35;;;;;;;9.63;7.68;;;;;;;;;;6126328;23;20041;-69
2022/01/27 16:50:01;;;;;;;11.85;8.55;;;;;;;;;;6152767;23;20016;-68
2022/01/27 16:52:28;;;;;;;13.85;9.25;;;;;;;;;;6152714;23;20002;-67
2022/01/27 16:54:54;;;;;;;13.23;9.68;;;;;;;;;;6152959;23;20326;-68
2022/01/27 16:57:20;;;;;;;10.73;6.88;;;;;;;;;;6152608;23;20001;-67
2022/01/27 16:59:46;;;;;;;11.60;8.65;;;;;;;;;;6152507;23;20389;-68
2022/01/27 17:02:12;;;;;;;15.55;10.05;;;;;;;;;;6153296;23;20011;-67
2022/01/27 17:04:41;;;;;;;9.95;5.82;;;;;;;;;;6152671;23;20337;-67
2022/01/27 17:07:07;;;;;;;11.68;8.68;;;;;;;;;;6152790;23;20032;-68
2022/01/27 17:09:32;;;;;;;11.18;7.65;;;;;;;;;;6152464;23;20442;-64
2022/01/27 17:11:58;;;;;;;10.18;7.00;;;;;;;;;;6152947;23;20013;-68
2022/01/27 17:14:23;;;;;;;12.40;8.23;;;;;;;;;;6152548;23;20088;-68
2022/01/27 17:16:54;;;;;;;7.85;6.07;;;;;;;;;;6152377;23;20041;-68
2022/01/27 17:19:20;;;;;;;12.40;9.88;;;;;;;;;;6152308;23;20008;-69
2022/01/27 17:21:46;;;;;;;11.20;8.45;;;;;;;;;;6152089;23;19998;-68
2022/01/27 17:24:11;;;;;;;14.77;10.88;;;;;;;;;;6152016;23;20009;-68
2022/01/27 17:26:37;;;;;;;14.25;11.10;;;;;;;;;;6125590;23;20006;-68
2022/01/27 17:29:03;;;;;;;13.18;8.57;;;;;;;;;;6151755;23;20037;-68
2022/01/27 17:31:28;;;;;;;13.48;9.55;;;;;;;;;;6152316;23;20025;-69
2022/01/27 17:33:54;;;;;;;15.35;11.18;;;;;;;;;;6152668;23;20300;-68
2022/01/27 17:36:19;;;;;;;11.75;9.18;;;;;;;;;;6152234;23;20048;-69
2022/01/27 17:38:45;;;;;;;11.88;9.05;;;;;;;;;;6152398;23;20061;-68
2022/01/27 17:41:14;;;;;;;11.25;8.77;;;;;;;;;;6152472;23;20006;-67
2022/01/27 17:43:45;;;;;;;13.73;9.57;;;;;;;;;;6152099;23;20009;-68
2022/01/27 17:46:11;;;;;;;11.95;8.77;;;;;;;;;;6152580;23;20021;-68
2022/01/27 17:48:37;;;;;;;13.77;9.23;;;;;;;;;;6152562;23;20005;-68
2022/01/27 17:51:03;;;;;;;14.63;10.10;;;;;;;;;;6152394;23;20087;-68
2022/01/27 17:53:28;;;;;;;13.63;9.98;;;;;;;;;;6152183;23;20001;-69
2022/01/27 17:56:00;;;;;;;14.35;9.68;;;;;;;;;;6125534;23;20010;-69
2022/01/27 17:58:29;;;;;;;12.27;9.55;;;;;;;;;;6152311;23;20009;-69
2022/01/27 18:00:55;;;;;;;13.13;9.75;;;;;;;;;;6152297;23;20005;-68
2022/01/27 18:03:23;;;;;;;17.92;11.38;;;;;;;;;;6152026;23;19997;-69
2022/01/27 18:05:49;;;;;;;13.43;8.50;;;;;;;;;;6152418;23;20024;-69
2022/01/27 18:08:15;;;;;;;14.60;10.65;;;;;;;;;;6151661;23;20016;-69
2022/01/27 18:10:41;;;;;;;12.80;9.55;;;;;;;;;;6152046;23;20338;-69
2022/01/27 18:13:09;;;;;;;11.70;9.38;;;;;;;;;;6152067;23;19998;-69
2022/01/27 18:15:35;;;;;;;12.43;8.63;;;;;;;;;;6151993;23;20440;-68
2022/01/27 18:18:00;;;;;;;14.68;10.27;;;;;;;;;;6152229;23;20001;-68
2022/01/27 18:20:26;;;;;;;13.18;9.75;;;;;;;;;;6151645;23;20017;-68
2022/01/27 18:22:52;;;;;;;12.07;8.15;;;;;;;;;;6152303;23;20075;-68
2022/01/27 18:25:18;;;;;;;11.98;9.20;;;;;;;;;;6151925;23;20288;-68
2022/01/27 18:27:44;;;;;;;16.85;11.45;;;;;;;;;;6151946;23;20001;-68
2022/01/27 18:30:11;;;;;;;11.52;9.15;;;;;;;;;;6151847;23;20014;-68
2022/01/27 18:32:36;;;;;;;9.40;7.20;;;;;;;;;;6152037;23;20060;-68
2022/01/27 18:35:02;;;;;;;9.93;7.45;;;;;;;;;;6151635;23;20460;-68
2022/01/27 18:37:28;;;;;;;13.20;10.70;;;;;;;;;;6151737;23;20005;-68
2022/01/27 18:39:54;;;;;;;12.55;8.23;;;;;;;;;;6151894;23;20016;-68
2022/01/27 18:42:19;;;;;;;11.70;8.68;;;;;;;;;;6151572;23;20005;-69
2022/01/27 18:44:45;;;;;;;12.63;9.45;;;;;;;;;;6152072;23;20480;-69
2022/01/27 18:47:10;;;;;;;12.05;8.68;;;;;;;;;;6152170;23;20013;-68
2022/01/27 18:49:36;;;;;;;10.98;8.25;;;;;;;;;;6151780;23;20014;-69
2022/01/27 18:52:02;;;;;;;15.48;11.45;;;;;;;;;;6152468;23;20029;-69
2022/01/27 18:54:28;;;;;;;12.70;10.10;;;;;;;;;;6152109;23;20073;-69
2022/01/27 18:56:53;;;;;;;15.38;11.52;;;;;;;;;;6152213;23;20001;-69
2022/01/27 18:59:18;;;;;;;11.07;8.38;;;;;;;;;;6151747;23;20013;-69
2022/01/27 19:01:44;;;;;;;12.75;9.32;;;;;;;;;;6151959;23;20056;-69
2022/01/27 19:04:10;;;;;;;14.73;10.55;;;;;;;;;;6151356;23;20014;-69
2022/01/27 19:06:35;;;;;;;15.52;9.90;;;;;;;;;;6152160;23;20017;-69
2022/01/27 19:09:02;;;;;;;11.02;6.03;;;;;;;;;;6152374;23;20084;-69
2022/01/27 19:11:28;;;;;;;14.35;11.13;;;;;;;;;;6152356;23;20006;-69
2022/01/27 19:13:53;;;;;;;20.85;14.95;;;;;;;;;;6152107;23;20001;-65
2022/01/27 19:16:19;;;;;;;17.52;12.07;;;;;;;;;;6152065;23;20021;-69
2022/01/27 19:18:44;;;;;;;19.77;12.95;;;;;;;;;;6151974;23;20457;-69
2022/01/27 19:21:10;;;;;;;18.10;11.50;;;;;;;;;;6151876;23;20040;-69
2022/01/27 19:23:42;;;;;;;13.85;9.45;;;;;;;;;;6154150;23;20418;-69
2022/01/27 19:26:08;;;;;;;17.65;12.05;;;;;;;;;;6155365;23;20434;-69
2022/01/27 19:28:34;;;;;;;13.52;10.55;;;;;;;;;;6156023;23;20012;-69
2022/01/27 19:31:00;;;;;;;15.93;11.27;;;;;;;;;;6155809;23;20010;-69
2022/01/27 19:33:25;;;;;;;16.90;11.35;;;;;;;;;;6155730;23;20029;-69
2022/01/27 19:35:51;;;;;;;15.93;11.15;;;;;;;;;;6155807;23;20486;-69
2022/01/27 19:38:18;;;;;;;13.23;9.95;;;;;;;;;;6155722;23;19998;-69
2022/01/27 19:40:45;;;;;;;12.77;9.63;;;;;;;;;;6155761;23;20085;-69
2022/01/27 19:43:11;;;;;;;11.75;7.97;;;;;;;;;;6155209;23;19997;-69
2022/01/27 19:45:37;;;;;;;15.38;11.10;;;;;;;;;;6155947;23;20398;-69
2022/01/27 19:48:07;;;;;;;10.98;7.47;;;;;;;;;;6157218;23;20001;-69
2022/01/27 19:50:34;;;;;;;7.47;5.22;;;;;;;;;;6157279;23;20382;-69
2022/01/27 19:52:59;;;;;;;11.60;7.03;;;;;;;;;;6157610;23;20044;-70
2022/01/27 19:55:25;;;;;;;15.45;10.93;;;;;;;;;;6157357;23;20006;-69
2022/01/27 19:57:52;;;;;;;14.60;10.38;;;;;;;;;;6157434;23;20055;-69
2022/01/27 20:00:19;;;;;;;16.17;11.40;;;;;;;;;;6157140;23;20008;-70
2022/01/27 20:02:46;;;;;;;19.23;11.68;;;;;;;;;;6157253;23;20084;-69
2022/01/27 20:05:12;;;;;;;14.55;9.98;;;;;;;;;;6156607;23;20192;-69
2022/01/27 20:07:37;;;;;;;16.67;11.68;;;;;;;;;;6131192;23;20009;-69
2022/01/27 20:10:03;;;;;;;13.55;8.93;;;;;;;;;;6157300;23;20029;-69
2022/01/27 20:12:29;;;;;;;17.17;11.50;;;;;;;;;;6156938;23;20311;-70
2022/01/27 20:14:54;;;;;;;10.95;7.70;;;;;;;;;;6157026;23;20311;-69
2022/01/27 20:17:20;;;;;;;18.38;12.68;;;;;;;;;;6156981;23;20052;-69
2022/01/27 20:19:50;;;;;;;11.07;7.65;;;;;;;;;;6156843;23;19993;-69
2022/01/27 20:22:15;;;;;;;14.73;9.52;;;;;;;;;;6157097;23;20009;-69
2022/01/27 20:24:41;;;;;;;15.77;10.25;;;;;;;;;;6157026;23;20322;-69
2022/01/27 20:27:06;;;;;;;14.38;10.45;;;;;;;;;;6156742;23;20009;-70
2022/01/27 20:29:32;;;;;;;15.90;9.55;;;;;;;;;;6156678;23;20009;-69
2022/01/27 20:31:58;;;;;;;15.90;10.10;;;;;;;;;;6156570;23;20029;-69
2022/01/27 20:34:24;;;;;;;13.32;10.00;;;;;;;;;;6156878;23;19997;-69
2022/01/27 20:36:49;;;;;;;13.68;9.63;;;;;;;;;;6155919;23;20013;-70
2022/01/27 20:39:15;;;;;;;13.30;8.82;;;;;;;;;;6156779;23;20006;-69
2022/01/27 20:41:41;;;;;;;17.10;10.55;;;;;;;;;;6130415;23;20009;-69
2022/01/27 20:44:07;;;;;;;16.50;11.07;;;;;;;;;;6156766;23;20302;-69
2022/01/27 20:46:33;;;;;;;13.82;9.48;;;;;;;;;;6157067;23;20005;-69
2022/01/27 20:48:59;;;;;;;12.73;7.63;;;;;;;;;;6130966;23;20005;-69
2022/01/27 20:51:25;;;;;;;16.70;10.80;;;;;;;;;;6157038;23;20056;-69
2022/01/27 20:53:55;;;;;;;12.98;9.82;;;;;;;;;;6156813;23;20002;-69
2022/01/27 20:56:21;;;;;;;14.80;9.50;;;;;;;;;;6156136;23;20088;-70
2022/01/27 20:58:47;;;;;;;14.05;8.85;;;;;;;;;;6156429;23;19998;-69
2022/01/27 21:01:13;;;;;;;12.48;7.90;;;;;;;;;;6156461;23;20011;-69
2022/01/27 21:03:38;;;;;;;13.95;9.55;;;;;;;;;;6157078;23;20032;-69
2022/01/27 21:06:05;;;;;;;16.13;10.93;;;;;;;;;;6130441;23;20481;-69
2022/01/27 21:08:31;;;;;;;17.08;10.48;;;;;;;;;;6105711;23;20088;-68
2022/01/27 21:10:57;;;;;;;12.82;9.13;;;;;;;;;;6156595;23;20005;-68
2022/01/27 21:13:25;;;;;;;16.92;10.95;;;;;;;;;;6156586;23;20005;-68
2022/01/27 21:15:52;;;;;;;16.08;10.95;;;;;;;;;;6156813;23;20080;-68
2022/01/27 21:18:17;;;;;;;14.18;9.68;;;;;;;;;;6156539;23;20029;-67
2022/01/27 21:20:43;;;;;;;17.23;11.25;;;;;;;;;;6156360;23;19994;-69
2022/01/27 21:23:08;;;;;;;17.98;10.57;;;;;;;;;;6156201;23;20005;-69
2022/01/27 21:25:34;;;;;;;16.25;10.25;;;;;;;;;;6156357;23;20081;-69
2022/01/27 21:28:00;;;;;;;15.07;10.52;;;;;;;;;;6156543;23;20010;-69
2022/01/27 21:30:25;;;;;;;18.27;11.13;;;;;;;;;;6156691;23;20070;-69
2022/01/27 21:32:51;;;;;;;13.95;9.07;;;;;;;;;;6156676;23;20013;-70
2022/01/27 21:35:17;;;;;;;16.63;10.55;;;;;;;;;;6156363;23;20081;-69
2022/01/27 21:37:43;;;;;;;15.55;10.23;;;;;;;;;;6156368;23;20379;-69
2022/01/27 21:40:09;;;;;;;14.57;10.65;;;;;;;;;;6156300;23;19997;-69
2022/01/27 21:42:36;;;;;;;14.98;8.65;;;;;;;;;;6156163;23;20002;-69
2022/01/27 21:45:03;;;;;;;17.35;10.43;;;;;;;;;;6156186;23;20101;-69
2022/01/27 21:47:28;;;;;;;15.45;10.15;;;;;;;;;;6156285;23;20484;-69
2022/01/27 21:49:54;;;;;;;18.75;11.32;;;;;;;;;;6156185;23;20032;-68
2022/01/27 21:52:19;;;;;;;17.55;10.77;;;;;;;;;;6156033;23;20363;-69
2022/01/27 21:54:46;;;;;;;20.48;11.02;;;;;;;;;;6156641;23;20029;-69
2022/01/27 21:57:12;;;;;;;15.43;9.82;;;;;;;;;;6130473;23;20017;-69
2022/01/27 21:59:39;;;;;;;18.13;10.82;;;;;;;;;;6156348;23;20307;-69
2022/01/27 22:02:05;;;;;;;13.45;8.05;;;;;;;;;;6156320;23;20005;-69
2022/01/27 22:04:30;;;;;;;15.93;9.38;;;;;;;;;;6155745;23;20025;-69
2022/01/27 22:06:56;;;;;;;12.68;8.07;;;;;;;;;;6156109;23;20005;-69
2022/01/27 22:09:23;;;;;;;13.40;8.77;;;;;;;;;;6156504;23;20068;-70
2022/01/27 22:11:49;;;;;;;13.77;9.35;;;;;;;;;;6155750;23;20009;-70
2022/01/27 22:14:15;;;;;;;14.50;9.15;;;;;;;;;;6156120;23;20005;-70
2022/01/27 22:16:40;;;;;;;15.02;10.02;;;;;;;;;;6130238;23;20013;-69
2022/01/27 22:19:06;;;;;;;16.65;9.80;;;;;;;;;;6155930;23;19997;-69
2022/01/27 22:21:32;;;;;;;17.08;10.52;;;;;;;;;;6156402;23;20001;-70
2022/01/27 22:23:58;;;;;;;14.95;8.93;;;;;;;;;;6155903;23;19997;-70
2022/01/27 22:26:23;;;;;;;16.10;9.40;;;;;;;;;;6156023;23;20386;-70
2022/01/27 22:28:49;;;;;;;16.10;9.02;;;;;;;;;;6129658;23;20440;-69
2022/01/27 22:31:14;;;;;;;12.80;8.10;;;;;;;;;;6156235;23;20449;-68
2022/01/27 22:33:43;;;;;;;16.13;8.48;;;;;;;;;;6155767;23;20425;-68
2022/01/27 22:36:09;;;;;;;14.70;9.18;;;;;;;;;;6156058;23;20033;-67
2022/01/27 22:38:35;;;;;;;14.07;6.95;;;;;;;;;;6155705;23;20080;-67
2022/01/27 22:41:03;;;;;;;12.55;7.53;;;;;;;;;;6156107;23;20072;-67
2022/01/27 22:43:28;;;;;;;13.93;7.50;;;;;;;;;;6155831;23;20025;-67
2022/01/27 22:45:54;;;;;;;11.60;7.63;;;;;;;;;;6155911;23;20056;-67
2022/01/27 22:48:19;;;;;;;11.55;7.38;;;;;;;;;;6155916;23;19998;-67
2022/01/27 22:50:45;;;;;;;11.15;7.30;;;;;;;;;;6129953;23;20016;-67
2022/01/27 22:53:10;;;;;;;11.45;7.30;;;;;;;;;;6155989;23;20080;-66
2022/01/27 22:55:36;;;;;;;9.95;6.88;;;;;;;;;;6155706;23;20426;-68
2022/01/27 22:58:01;;;;;;;10.68;6.82;;;;;;;;;;6155803;23;19993;-68
2022/01/27 23:00:32;;;;;;;13.43;8.05;;;;;;;;;;6155878;23;20056;-68
2022/01/27 23:02:58;;;;;;;11.45;6.97;;;;;;;;;;6155972;23;20001;-67
2022/01/27 23:05:24;;;;;;;12.70;7.28;;;;;;;;;;6154935;23;20021;-68
2022/01/27 23:08:20;;;;;;;9.75;6.35;;;;;;;;;;6129744;23;20092;-67
2022/01/27 23:10:45;;;;;;;9.93;6.35;;;;;;;;;;6155914;23;20009;-69
